Orbital elements of FENGYUN 1C DEB
| Launched | 9 May 1999 |
| Flight ended | – |
| Launch site | Taiyuan Space Center, PRC |
| Owner | People's Republic of China |
| NORAD ID | 30008 |
| Date fetched |
Epoch osculation |
Inc. [°] |
Ecc. | RA asc node [hr] |
Arg Peri. [°] |
Mean anom [°] |
Mean motion [rev/day] |
Abs. mag |
| Date fetched |
Epoch osculation |
Inc. [°] |
Ecc. | RA asc node [hr] |
Arg Peri. [°] |
Mean anom [°] |
Mean motion [rev/day] |
Abs. mag |
| 2026 May 09 17:57 | 2026 May 05 10:25:04 | 99.3795 | 0.00388 | 7.1747 | 114.0217 | 36.9639 | 14.70205 | – |
| 2026 May 08 17:57 | 2026 May 05 10:25:04 | 99.3795 | 0.00388 | 7.1747 | 114.0217 | 36.9639 | 14.70205 | – |
| 2026 May 07 17:58 | 2026 May 05 10:25:04 | 99.3795 | 0.00388 | 7.1747 | 114.0217 | 36.9639 | 14.70205 | – |
| 2026 May 06 17:57 | 2026 May 05 10:25:04 | 99.3795 | 0.00388 | 7.1747 | 114.0217 | 36.9639 | 14.70205 | – |
| 2026 May 05 17:57 | 2026 May 05 10:25:04 | 99.3795 | 0.00388 | 7.1747 | 114.0217 | 36.9639 | 14.70205 | – |
| 2026 May 04 17:57 | 2026 Apr 30 12:40:19 | 99.3783 | 0.00387 | 6.7990 | 128.3400 | 36.9639 | 14.70205 | – |
| 2026 May 03 17:57 | 2026 Apr 30 12:40:19 | 99.3783 | 0.00387 | 6.7990 | 128.3400 | 36.9639 | 14.70205 | – |
| 2026 May 02 17:57 | 2026 Apr 30 12:40:19 | 99.3783 | 0.00387 | 6.7990 | 128.3400 | 36.9639 | 14.70205 | – |
| 2026 May 01 17:56 | 2026 Apr 30 12:40:19 | 99.3783 | 0.00387 | 6.7990 | 128.3400 | 36.9639 | 14.70205 | – |
| 2026 Apr 30 17:56 | 2026 Apr 30 12:40:19 | 99.3783 | 0.00387 | 6.7990 | 128.3400 | 36.9639 | 14.70205 | – |
| 2026 Apr 29 17:57 | 2026 Apr 24 12:54:15 | 99.3788 | 0.00382 | 6.3403 | 146.1410 | 36.9639 | 14.70205 | – |
| 2026 Apr 28 17:56 | 2026 Apr 24 12:54:15 | 99.3788 | 0.00382 | 6.3403 | 146.1410 | 36.9639 | 14.70205 | – |
| 2026 Apr 27 17:58 | 2026 Apr 24 12:54:15 | 99.3788 | 0.00382 | 6.3403 | 146.1410 | 36.9639 | 14.70205 | – |
| 2026 Apr 26 17:58 | 2026 Apr 24 12:54:15 | 99.3788 | 0.00382 | 6.3403 | 146.1410 | 36.9639 | 14.70205 | – |
| 2026 Apr 25 17:58 | 2026 Apr 24 12:54:15 | 99.3788 | 0.00382 | 6.3403 | 146.1410 | 36.9639 | 14.70205 | – |
| 2026 Apr 24 17:59 | 2026 Apr 24 12:54:15 | 99.3788 | 0.00382 | 6.3403 | 146.1410 | 36.9639 | 14.70205 | – |
| 2026 Apr 23 17:57 | 2026 Apr 19 12:02:40 | 99.3792 | 0.00377 | 5.9549 | 161.4055 | 36.9639 | 14.70205 | – |
| 2026 Apr 22 17:57 | 2026 Apr 19 12:02:40 | 99.3792 | 0.00377 | 5.9549 | 161.4055 | 36.9639 | 14.70205 | – |
| 2026 Apr 21 17:57 | 2026 Apr 19 12:02:40 | 99.3792 | 0.00377 | 5.9549 | 161.4055 | 36.9639 | 14.70205 | – |
| 2026 Apr 20 17:57 | 2026 Apr 19 12:02:40 | 99.3792 | 0.00377 | 5.9549 | 161.4055 | 36.9639 | 14.70205 | – |
| 2026 Apr 19 17:58 | 2026 Apr 19 12:02:40 | 99.3792 | 0.00377 | 5.9549 | 161.4055 | 36.9639 | 14.70205 | – |
| 2026 Apr 18 17:56 | 2026 Apr 12 10:14:56 | 99.3780 | 0.00372 | 5.4134 | 183.1504 | 36.9639 | 14.70205 | – |
| 2026 Apr 16 17:57 | 2026 Apr 12 10:14:56 | 99.3780 | 0.00372 | 5.4134 | 183.1504 | 36.9639 | 14.70205 | – |
| 2026 Apr 14 17:57 | 2026 Apr 12 10:14:56 | 99.3780 | 0.00372 | 5.4134 | 183.1504 | 36.9639 | 14.70205 | – |
| 2026 Apr 13 17:57 | 2026 Apr 12 10:14:56 | 99.3780 | 0.00372 | 5.4134 | 183.1504 | 36.9639 | 14.70205 | – |
| 2026 Apr 12 17:57 | 2026 Apr 08 11:20:16 | 99.3784 | 0.00369 | 5.1108 | 195.5333 | 36.9639 | 14.70205 | – |